createdAt,value
2022-11-27T00:02:23.255Z,6.22
2022-11-27T00:04:50.518Z,6.93
2022-11-27T00:07:17.725Z,6.68
2022-11-27T00:09:44.991Z,4.38
2022-11-27T00:12:12.175Z,6.10
2022-11-27T00:14:39.429Z,5.00
2022-11-27T00:17:06.627Z,6.93
2022-11-27T00:19:33.802Z,13.05
2022-11-27T00:22:00.992Z,9.73
2022-11-27T00:24:28.220Z,7.40
2022-11-27T00:26:55.441Z,3.35
2022-11-27T00:29:22.721Z,2.72
2022-11-27T00:31:49.893Z,7.07
2022-11-27T00:34:17.083Z,11.05
2022-11-27T00:36:48.025Z,8.70
2022-11-27T00:39:15.715Z,4.45
2022-11-27T00:41:42.870Z,7.15
2022-11-27T00:44:10.123Z,13.05
2022-11-27T00:46:37.421Z,7.28
2022-11-27T00:49:04.702Z,10.32
2022-11-27T00:51:31.873Z,6.85
2022-11-27T00:53:59.078Z,5.88
2022-11-27T00:56:26.317Z,10.30
2022-11-27T00:58:53.472Z,8.23
2022-11-27T01:01:20.772Z,7.25
2022-11-27T01:03:48.022Z,7.45
2022-11-27T01:06:15.362Z,10.80
2022-11-27T01:08:42.528Z,10.40
2022-11-27T01:11:09.770Z,6.13
2022-11-27T01:13:37.030Z,4.32
2022-11-27T01:16:04.369Z,7.78
2022-11-27T01:18:31.597Z,8.63
2022-11-27T01:20:58.803Z,7.40
2022-11-27T01:23:25.990Z,6.85
2022-11-27T01:25:56.385Z,5.18
2022-11-27T01:28:23.667Z,5.80
2022-11-27T01:30:50.948Z,3.22
2022-11-27T01:33:18.238Z,5.78
2022-11-27T01:35:45.404Z,2.35
2022-11-27T01:38:12.611Z,7.78
2022-11-27T01:40:40.005Z,10.10
2022-11-27T01:43:07.188Z,3.95
2022-11-27T01:45:34.376Z,7.88
2022-11-27T01:48:01.661Z,6.63
2022-11-27T01:50:28.803Z,10.23
2022-11-27T01:52:56.030Z,5.75
2022-11-27T01:55:23.203Z,9.00
2022-11-27T01:57:50.512Z,13.32
2022-11-27T02:00:17.671Z,6.57
2022-11-27T02:02:44.974Z,4.70
2022-11-27T02:05:12.179Z,12.23
2022-11-27T02:07:39.384Z,10.43
2022-11-27T02:10:06.638Z,14.60
2022-11-27T02:12:33.908Z,13.38
2022-11-27T02:15:01.207Z,17.65
2022-11-27T02:17:28.470Z,13.57
2022-11-27T02:19:55.651Z,9.50
2022-11-27T02:22:22.874Z,8.45
2022-11-27T02:24:50.134Z,5.32
2022-11-27T02:27:17.375Z,14.98
2022-11-27T02:29:44.550Z,10.73
2022-11-27T02:32:11.869Z,8.32
2022-11-27T02:34:39.298Z,9.57
2022-11-27T02:37:06.638Z,8.40
2022-11-27T02:39:33.801Z,3.20
2022-11-27T02:42:01.019Z,2.63
2022-11-27T02:44:28.202Z,9.43
2022-11-27T02:46:55.496Z,9.15
2022-11-27T02:49:22.710Z,10.32
2022-11-27T02:51:49.931Z,4.05
2022-11-27T02:54:17.163Z,4.38
2022-11-27T02:56:44.373Z,1.85
2022-11-27T02:59:11.507Z,9.05
2022-11-27T03:01:39.202Z,4.20
2022-11-27T03:04:06.414Z,2.72
2022-11-27T03:06:33.639Z,4.07
2022-11-27T03:09:00.800Z,4.80
2022-11-27T03:11:30.861Z,5.60
2022-11-27T03:13:58.093Z,5.00
2022-11-27T03:16:25.313Z,5.25
2022-11-27T03:18:52.568Z,8.32
2022-11-27T03:21:19.811Z,7.10
2022-11-27T03:23:47.030Z,6.28
2022-11-27T03:26:14.250Z,3.28
2022-11-27T03:28:41.455Z,3.50
2022-11-27T03:31:08.693Z,5.60
2022-11-27T03:33:35.954Z,5.07
2022-11-27T03:36:03.127Z,3.33
2022-11-27T03:38:30.378Z,5.43
2022-11-27T03:40:57.627Z,8.30
2022-11-27T03:43:24.840Z,7.03
2022-11-27T03:45:52.027Z,4.18
2022-11-27T03:48:19.200Z,3.20
2022-11-27T03:50:46.474Z,3.90
2022-11-27T03:53:13.641Z,6.50
2022-11-27T03:55:40.842Z,2.20
2022-11-27T03:58:07.986Z,2.33
2022-11-27T04:00:35.268Z,3.05
2022-11-27T04:03:02.414Z,1.70
2022-11-27T04:05:29.649Z,3.17
2022-11-27T04:07:56.923Z,4.13
2022-11-27T04:10:24.231Z,2.92
2022-11-27T04:12:51.478Z,4.13
2022-11-27T04:15:18.769Z,1.08
2022-11-27T04:17:45.933Z,3.50
2022-11-27T04:20:13.367Z,4.72
2022-11-27T04:22:40.532Z,5.80
2022-11-27T04:25:07.761Z,6.20
2022-11-27T04:27:34.957Z,2.08
2022-11-27T04:30:02.196Z,4.13
2022-11-27T04:32:29.384Z,6.05
2022-11-27T04:34:56.523Z,2.70
2022-11-27T04:37:23.764Z,3.03
2022-11-27T04:39:50.906Z,0.35
2022-11-27T04:42:18.159Z,4.00
2022-11-27T04:44:45.332Z,2.22
2022-11-27T04:47:12.568Z,3.13
2022-11-27T04:49:39.741Z,4.22
2022-11-27T04:52:06.975Z,2.95
2022-11-27T04:54:34.195Z,7.20
2022-11-27T04:57:01.388Z,1.38
2022-11-27T04:59:28.555Z,1.50
2022-11-27T05:01:55.748Z,6.28
2022-11-27T05:04:22.917Z,5.53
2022-11-27T05:06:50.213Z,5.47
2022-11-27T05:09:17.366Z,6.00
2022-11-27T05:11:44.608Z,0.93
2022-11-27T05:14:18.360Z,4.88
2022-11-27T05:16:45.660Z,7.97
2022-11-27T05:19:12.787Z,3.30
2022-11-27T05:21:40.014Z,1.00
2022-11-27T05:24:07.216Z,2.20
2022-11-27T05:26:34.436Z,2.35
2022-11-27T05:29:01.678Z,6.55
2022-11-27T05:31:28.981Z,7.70
2022-11-27T05:33:56.160Z,5.00
2022-11-27T05:36:23.367Z,5.07
2022-11-27T05:38:50.546Z,4.80
2022-11-27T05:41:17.736Z,5.53
2022-11-27T05:43:44.967Z,4.53
2022-11-27T05:46:12.231Z,1.77
2022-11-27T05:48:39.584Z,7.25
2022-11-27T05:51:06.735Z,2.20
2022-11-27T05:53:33.940Z,6.20
2022-11-27T05:56:01.085Z,4.20
2022-11-27T05:58:28.344Z,5.82
2022-11-27T06:00:55.544Z,3.05
2022-11-27T06:03:22.815Z,5.57
2022-11-27T06:05:50.027Z,6.25
2022-11-27T06:08:17.292Z,5.25
2022-11-27T06:10:44.445Z,1.38
2022-11-27T06:13:11.723Z,5.57
2022-11-27T06:15:38.980Z,4.95
2022-11-27T06:18:06.251Z,2.30
2022-11-27T06:20:33.423Z,4.03
2022-11-27T06:23:00.643Z,1.25
2022-11-27T06:25:27.840Z,2.72
2022-11-27T06:27:55.058Z,6.00
2022-11-27T06:30:22.284Z,3.80
2022-11-27T06:32:49.514Z,0.98
2022-11-27T06:35:16.726Z,2.00
2022-11-27T06:37:43.940Z,3.17
2022-11-27T06:40:11.118Z,5.95
2022-11-27T06:42:38.373Z,1.35
2022-11-27T06:45:05.687Z,4.43
2022-11-27T06:47:32.913Z,3.00
2022-11-27T06:50:00.084Z,2.70
2022-11-27T06:52:27.282Z,2.63
2022-11-27T06:54:54.460Z,2.83
2022-11-27T06:57:21.757Z,3.70
2022-11-27T06:59:49.160Z,0.50
2022-11-27T07:02:16.461Z,0.35
2022-11-27T07:04:43.677Z,1.63
2022-11-27T07:07:10.966Z,1.55
2022-11-27T07:09:38.180Z,3.90
2022-11-27T07:12:05.951Z,1.27
2022-11-27T07:14:33.120Z,0.68
2022-11-27T07:17:00.344Z,2.05
2022-11-27T07:19:27.492Z,0.40
2022-11-27T07:21:54.716Z,1.92
2022-11-27T07:24:21.973Z,0.43
2022-11-27T07:26:49.270Z,3.10
2022-11-27T07:29:16.449Z,6.43
2022-11-27T07:31:43.694Z,2.72
2022-11-27T07:34:15.951Z,5.13
2022-11-27T07:36:44.398Z,2.45
2022-11-27T07:39:11.644Z,2.67
2022-11-27T07:41:38.905Z,5.43
2022-11-27T07:44:06.087Z,3.55
2022-11-27T07:46:33.353Z,3.55
2022-11-27T07:49:00.831Z,2.45
2022-11-27T07:51:28.215Z,3.08
2022-11-27T07:53:55.438Z,4.47
2022-11-27T07:56:22.944Z,2.63
2022-11-27T07:58:50.100Z,2.90
2022-11-27T08:01:17.416Z,1.98
2022-11-27T08:03:44.708Z,2.95
2022-11-27T08:06:11.911Z,3.38
2022-11-27T08:08:39.164Z,1.88
2022-11-27T08:11:06.395Z,1.80
2022-11-27T08:13:33.560Z,4.72
2022-11-27T08:16:00.793Z,3.33
2022-11-27T08:18:27.970Z,2.92
2022-11-27T08:20:55.208Z,0.65
2022-11-27T08:23:22.393Z,5.18
2022-11-27T08:25:49.614Z,0.63
2022-11-27T08:28:16.756Z,5.18
2022-11-27T08:30:43.977Z,6.13
2022-11-27T08:33:11.159Z,4.85
2022-11-27T08:35:38.366Z,2.47
2022-11-27T08:38:05.862Z,1.27
2022-11-27T08:40:33.177Z,2.55
2022-11-27T08:43:00.358Z,1.00
2022-11-27T08:45:27.648Z,0.85
2022-11-27T08:47:54.828Z,0.90
2022-11-27T08:50:22.080Z,5.97
2022-11-27T08:52:49.358Z,3.78
2022-11-27T08:55:16.891Z,1.35
2022-11-27T08:57:44.064Z,3.00
2022-11-27T09:00:11.434Z,3.80
2022-11-27T09:02:38.681Z,3.85
2022-11-27T09:05:05.912Z,5.53
2022-11-27T09:07:33.155Z,2.60
2022-11-27T09:10:00.411Z,3.70
2022-11-27T09:12:28.899Z,1.58
2022-11-27T09:14:56.152Z,3.45
2022-11-27T09:17:23.523Z,3.05
2022-11-27T09:19:50.775Z,5.78
2022-11-27T09:22:18.139Z,4.68
2022-11-27T09:24:45.396Z,5.28
2022-11-27T09:27:12.582Z,4.35
2022-11-27T09:29:39.857Z,5.88
2022-11-27T09:32:07.051Z,3.17
2022-11-27T09:34:37.445Z,1.75
2022-11-27T09:37:05.132Z,0.98
2022-11-27T09:39:34.086Z,3.70
2022-11-27T09:42:01.905Z,3.03
2022-11-27T09:44:29.152Z,3.25
2022-11-27T09:46:57.050Z,2.80
2022-11-27T09:49:24.246Z,12.73
2022-11-27T09:51:51.513Z,4.32
2022-11-27T09:54:18.776Z,2.65
2022-11-27T09:56:46.054Z,4.13
2022-11-27T09:59:15.701Z,2.38
2022-11-27T10:01:47.642Z,8.88
2022-11-27T10:04:17.807Z,2.55
2022-11-27T10:06:44.959Z,5.55
2022-11-27T10:09:15.281Z,5.55
2022-11-27T10:11:42.521Z,9.15
2022-11-27T10:14:09.771Z,6.40
2022-11-27T10:16:41.430Z,4.45
2022-11-27T10:19:11.480Z,6.50
2022-11-27T10:21:38.777Z,6.30
2022-11-27T10:24:06.173Z,6.70
2022-11-27T10:26:33.358Z,4.05
2022-11-27T10:29:00.543Z,3.28
2022-11-27T10:31:27.977Z,8.15
2022-11-27T10:33:55.164Z,7.88
2022-11-27T10:36:22.412Z,7.47
2022-11-27T10:38:49.666Z,9.27
2022-11-27T10:41:47.541Z,2.97
2022-11-27T10:44:04.221Z,8.07
2022-11-27T10:46:31.376Z,5.70
2022-11-27T10:48:58.669Z,11.50
2022-11-27T10:51:25.997Z,2.33
2022-11-27T10:53:53.298Z,3.63
2022-11-27T10:56:20.585Z,8.85
2022-11-27T10:58:47.784Z,5.05
2022-11-27T11:01:14.963Z,5.45
2022-11-27T11:03:42.238Z,6.95
2022-11-27T11:06:20.544Z,8.57
2022-11-27T11:08:48.414Z,13.10
2022-11-27T11:11:15.792Z,14.85
2022-11-27T11:13:42.999Z,9.88
2022-11-27T11:16:14.535Z,8.25
2022-11-27T11:18:42.553Z,11.88
2022-11-27T11:21:10.984Z,10.10
2022-11-27T11:23:38.194Z,9.00
2022-11-27T11:26:05.362Z,10.30
2022-11-27T11:28:38.035Z,7.15
2022-11-27T11:31:06.697Z,6.10
2022-11-27T11:33:33.852Z,8.23
2022-11-27T11:36:01.111Z,7.07
2022-11-27T11:38:28.316Z,7.00
2022-11-27T11:40:55.503Z,6.25
2022-11-27T11:43:22.716Z,11.60
2022-11-27T11:45:49.942Z,10.80
2022-11-27T11:48:17.215Z,9.68
2022-11-27T11:50:44.419Z,10.57
2022-11-27T11:53:11.575Z,10.63
2022-11-27T11:55:38.891Z,13.00
2022-11-27T11:58:10.267Z,12.55
2022-11-27T12:00:53.054Z,8.07
2022-11-27T12:03:24.843Z,9.75
2022-11-27T12:05:51.968Z,8.15
2022-11-27T12:08:19.185Z,10.45
2022-11-27T12:10:47.072Z,9.45
2022-11-27T12:13:14.377Z,13.13
2022-11-27T12:15:41.539Z,13.05
2022-11-27T12:18:08.744Z,10.48
2022-11-27T12:20:35.885Z,16.15
2022-11-27T12:23:03.291Z,4.15
2022-11-27T12:25:32.653Z,13.77
2022-11-27T12:27:59.905Z,12.85
2022-11-27T12:30:28.237Z,16.80
2022-11-27T12:32:55.453Z,10.18
2022-11-27T12:35:22.628Z,10.60
2022-11-27T12:37:49.891Z,17.42
2022-11-27T12:40:17.057Z,8.05
2022-11-27T12:42:44.295Z,12.40
2022-11-27T12:45:12.730Z,13.38
2022-11-27T12:47:40.449Z,18.27
2022-11-27T12:50:07.679Z,7.38
2022-11-27T12:52:34.940Z,16.17
2022-11-27T12:55:02.090Z,10.57
2022-11-27T12:57:29.326Z,23.52
2022-11-27T12:59:56.737Z,13.65
2022-11-27T13:02:24.648Z,11.95
2022-11-27T13:04:51.896Z,16.95
2022-11-27T13:07:19.152Z,12.40
2022-11-27T13:09:46.504Z,23.20
2022-11-27T13:12:13.635Z,13.98
2022-11-27T13:14:41.064Z,14.55
2022-11-27T13:17:08.405Z,14.88
2022-11-27T13:19:35.820Z,17.63
2022-11-27T13:22:03.014Z,15.30
2022-11-27T13:24:30.252Z,12.38
2022-11-27T13:26:57.514Z,24.88
2022-11-27T13:29:24.754Z,21.25
2022-11-27T13:31:52.159Z,18.10
2022-11-27T13:34:19.460Z,17.27
2022-11-27T13:36:46.709Z,26.52
2022-11-27T13:39:13.929Z,30.35
2022-11-27T13:41:41.249Z,19.05
2022-11-27T13:44:11.641Z,25.10
2022-11-27T13:46:39.003Z,22.85
2022-11-27T13:49:06.289Z,33.08
2022-11-27T13:51:33.524Z,22.88
2022-11-27T13:54:01.012Z,31.08
2022-11-27T13:56:28.238Z,18.70
2022-11-27T13:58:55.411Z,18.75
2022-11-27T14:01:22.685Z,22.85
2022-11-27T14:03:49.857Z,17.88
2022-11-27T14:06:17.232Z,29.35
2022-11-27T14:08:44.352Z,25.67
2022-11-27T14:11:14.735Z,28.30
2022-11-27T14:13:41.918Z,22.45
2022-11-27T14:16:09.157Z,22.08
2022-11-27T14:18:36.398Z,32.78
2022-11-27T14:21:03.695Z,43.20
2022-11-27T14:23:30.885Z,31.65
2022-11-27T14:25:58.116Z,27.80
2022-11-27T14:28:26.381Z,23.33
2022-11-27T14:30:53.738Z,30.00
2022-11-27T14:33:20.944Z,30.52
2022-11-27T14:35:48.273Z,36.10
2022-11-27T14:38:15.462Z,28.42
2022-11-27T14:40:42.788Z,16.05
2022-11-27T14:43:10.007Z,35.17
2022-11-27T14:45:37.255Z,33.75
2022-11-27T14:48:04.415Z,35.67
2022-11-27T14:50:31.635Z,29.85
2022-11-27T14:52:58.883Z,30.95
2022-11-27T14:55:29.019Z,30.70
2022-11-27T14:58:00.366Z,23.95
2022-11-27T15:00:27.513Z,29.23
2022-11-27T15:02:54.903Z,23.60
2022-11-27T15:05:22.183Z,32.92
2022-11-27T15:07:50.963Z,42.85
2022-11-27T15:10:18.512Z,32.55
2022-11-27T15:12:45.765Z,30.55
2022-11-27T15:15:12.946Z,30.95
2022-11-27T15:17:40.147Z,31.85
2022-11-27T15:20:07.328Z,29.73
2022-11-27T15:22:36.797Z,31.23
2022-11-27T15:25:03.991Z,30.67
2022-11-27T15:27:31.201Z,37.53
2022-11-27T15:29:58.428Z,41.03
2022-11-27T15:32:25.765Z,23.55
2022-11-27T15:34:52.971Z,30.27
2022-11-27T15:37:20.197Z,18.45
2022-11-27T15:39:48.170Z,36.00
2022-11-27T15:42:17.649Z,34.42
2022-11-27T15:44:44.959Z,35.08
2022-11-27T15:47:12.284Z,38.13
2022-11-27T15:49:39.427Z,32.45
2022-11-27T15:52:06.652Z,27.75
2022-11-27T15:54:33.868Z,33.88
2022-11-27T15:57:01.145Z,32.47
2022-11-27T15:59:29.366Z,27.75
2022-11-27T16:01:57.956Z,29.70
2022-11-27T16:04:25.284Z,35.97
2022-11-27T16:06:52.511Z,42.22
2022-11-27T16:09:19.718Z,34.58
2022-11-27T16:11:46.910Z,29.55
2022-11-27T16:14:14.055Z,43.13
2022-11-27T16:16:41.495Z,39.10
2022-11-27T16:19:12.150Z,46.05
2022-11-27T16:21:39.376Z,34.47
2022-11-27T16:24:06.675Z,34.50
2022-11-27T16:26:33.903Z,32.05
2022-11-27T16:29:01.094Z,32.35
2022-11-27T16:31:28.410Z,33.03
2022-11-27T16:33:56.262Z,39.78
2022-11-27T16:36:25.310Z,32.08
2022-11-27T16:38:54.253Z,31.60
2022-11-27T16:41:23.629Z,32.50
2022-11-27T16:43:53.433Z,34.63
2022-11-27T16:46:21.534Z,40.30
2022-11-27T16:48:48.970Z,34.00
2022-11-27T16:51:17.502Z,28.63
2022-11-27T16:53:44.798Z,32.42
2022-11-27T16:56:12.151Z,40.00
2022-11-27T16:58:39.400Z,29.08
2022-11-27T17:01:06.735Z,43.05
2022-11-27T17:03:34.020Z,47.05
2022-11-27T17:06:01.233Z,39.00
2022-11-27T17:08:28.593Z,33.92
2022-11-27T17:10:55.784Z,37.67
2022-11-27T17:13:24.714Z,28.75
2022-11-27T17:15:53.464Z,42.03
2022-11-27T17:18:20.918Z,42.38
2022-11-27T17:20:48.171Z,35.25
2022-11-27T17:23:15.668Z,36.13
2022-11-27T17:25:42.917Z,49.00
2022-11-27T17:28:10.180Z,33.83
2022-11-27T17:30:39.395Z,55.35
2022-11-27T17:33:06.781Z,44.08
2022-11-27T17:35:33.996Z,49.78
2022-11-27T17:38:01.325Z,43.33
2022-11-27T17:40:30.616Z,43.50
2022-11-27T17:42:57.811Z,37.05
2022-11-27T17:45:25.035Z,33.08
2022-11-27T17:47:52.470Z,39.13
2022-11-27T17:50:20.926Z,30.98
2022-11-27T17:52:48.396Z,35.28
2022-11-27T17:55:15.789Z,43.13
2022-11-27T17:57:43.175Z,44.53
2022-11-27T18:00:11.097Z,43.20
2022-11-27T18:02:41.351Z,32.60
2022-11-27T18:05:09.370Z,36.22
2022-11-27T18:07:36.614Z,37.42
2022-11-27T18:10:03.891Z,27.17
2022-11-27T18:12:31.156Z,44.80
2022-11-27T18:15:01.436Z,23.00
2022-11-27T18:17:29.248Z,29.65
2022-11-27T18:19:59.064Z,35.65
2022-11-27T18:22:26.399Z,40.75
2022-11-27T18:24:53.571Z,35.20
2022-11-27T18:27:20.884Z,40.53
2022-11-27T18:29:49.936Z,33.88
2022-11-27T18:32:18.589Z,25.63
2022-11-27T18:34:46.068Z,30.00
2022-11-27T18:37:13.270Z,39.20
2022-11-27T18:39:40.693Z,152.68
2022-11-27T18:42:08.428Z,38.75
2022-11-27T18:44:39.681Z,93.43
2022-11-27T18:47:11.676Z,55.17
2022-11-27T18:49:39.398Z,46.60
2022-11-27T18:52:06.918Z,78.63
2022-11-27T18:54:34.200Z,64.13
2022-11-27T18:57:01.383Z,47.33
2022-11-27T18:59:28.771Z,41.90
2022-11-27T19:01:56.117Z,41.22
2022-11-27T19:04:23.500Z,29.85
2022-11-27T19:06:51.282Z,50.42
2022-11-27T19:09:19.180Z,35.92
2022-11-27T19:11:46.362Z,38.33
2022-11-27T19:14:13.584Z,38.55
2022-11-27T19:16:43.912Z,29.77
2022-11-27T19:19:49.321Z,29.90
2022-11-27T19:22:00.672Z,24.55
2022-11-27T19:24:27.934Z,31.00
2022-11-27T19:26:55.142Z,45.95
2022-11-27T19:29:22.507Z,53.65
2022-11-27T19:31:50.037Z,39.58
2022-11-27T19:34:17.337Z,36.75
2022-11-27T19:36:45.157Z,40.38
2022-11-27T19:39:14.133Z,25.58
2022-11-27T19:41:41.433Z,35.40
2022-11-27T19:44:08.749Z,46.35
2022-11-27T19:46:35.916Z,32.28
2022-11-27T19:49:03.675Z,46.67
2022-11-27T19:51:31.014Z,50.35
2022-11-27T19:53:58.278Z,39.65
2022-11-27T19:56:27.882Z,30.83
2022-11-27T19:58:56.561Z,40.08
2022-11-27T20:01:23.955Z,34.83
2022-11-27T20:03:52.376Z,26.83
2022-11-27T20:06:19.659Z,24.13
2022-11-27T20:08:46.849Z,31.13
2022-11-27T20:11:14.159Z,34.03
2022-11-27T20:13:41.314Z,21.75
2022-11-27T20:16:08.658Z,27.10
2022-11-27T20:18:35.899Z,23.02
2022-11-27T20:21:04.028Z,34.70
2022-11-27T20:23:31.254Z,30.67
2022-11-27T20:25:58.490Z,21.83
2022-11-27T20:28:25.724Z,20.00
2022-11-27T20:30:52.941Z,33.47
2022-11-27T20:33:21.039Z,22.67
2022-11-27T20:35:48.376Z,28.30
2022-11-27T20:38:15.586Z,25.42
2022-11-27T20:40:43.405Z,25.80
2022-11-27T20:43:10.633Z,30.45
2022-11-27T20:45:38.224Z,37.47
2022-11-27T20:48:05.979Z,59.60
2022-11-27T20:50:33.384Z,35.63
2022-11-27T20:53:00.804Z,41.55
2022-11-27T20:55:28.052Z,24.05
2022-11-27T20:57:55.322Z,34.75
2022-11-27T21:00:23.071Z,27.98
2022-11-27T21:02:50.365Z,24.98
2022-11-27T21:05:20.074Z,30.60
2022-11-27T21:07:47.525Z,31.02
2022-11-27T21:10:15.148Z,32.45
2022-11-27T21:12:42.464Z,28.73
2022-11-27T21:15:15.478Z,37.60
2022-11-27T21:17:43.082Z,34.15
2022-11-27T21:20:10.234Z,38.20
2022-11-27T21:22:37.472Z,31.02
2022-11-27T21:25:04.760Z,40.47
2022-11-27T21:27:32.061Z,40.67
2022-11-27T21:29:59.219Z,29.15
2022-11-27T21:32:26.793Z,39.85
2022-11-27T21:34:54.101Z,38.42
2022-11-27T21:37:21.350Z,32.92
2022-11-27T21:39:48.734Z,28.15
2022-11-27T21:42:16.340Z,23.52
2022-11-27T21:44:43.733Z,34.63
2022-11-27T21:47:12.150Z,32.10
2022-11-27T21:49:39.428Z,32.80
2022-11-27T21:52:08.696Z,28.55
2022-11-27T21:54:36.541Z,29.58
2022-11-27T21:57:03.812Z,21.63
2022-11-27T21:59:31.186Z,33.33
2022-11-27T22:01:58.795Z,44.83
2022-11-27T22:04:26.078Z,30.27
2022-11-27T22:06:53.248Z,27.05
2022-11-27T22:09:20.484Z,38.13
2022-11-27T22:11:47.691Z,34.75
2022-11-27T22:14:14.923Z,53.65
2022-11-27T22:16:45.761Z,30.52
2022-11-27T22:19:14.451Z,34.15
2022-11-27T22:21:41.829Z,47.50
2022-11-27T22:24:12.185Z,38.42
2022-11-27T22:26:44.013Z,46.75
2022-11-27T22:29:11.314Z,51.80
2022-11-27T22:31:38.646Z,42.95
2022-11-27T22:34:05.898Z,50.65
2022-11-27T22:36:33.111Z,39.65
2022-11-27T22:39:00.505Z,50.00
2022-11-27T22:41:27.914Z,40.03
2022-11-27T22:43:55.479Z,46.75
2022-11-27T22:46:23.085Z,50.28
2022-11-27T22:48:50.939Z,48.65
2022-11-27T22:51:18.294Z,48.30
2022-11-27T22:53:45.582Z,44.05
2022-11-27T22:56:13.398Z,38.17
2022-11-27T22:58:41.930Z,44.90
2022-11-27T23:01:09.471Z,41.70
2022-11-27T23:03:36.886Z,48.55
2022-11-27T23:06:04.338Z,29.38
2022-11-27T23:08:33.655Z,43.30
2022-11-27T23:11:00.992Z,38.05
2022-11-27T23:13:28.168Z,46.72
2022-11-27T23:15:55.435Z,47.53
2022-11-27T23:18:22.663Z,43.03
2022-11-27T23:20:49.918Z,49.15
2022-11-27T23:23:17.169Z,47.15
2022-11-27T23:25:44.516Z,46.03
2022-11-27T23:28:11.681Z,35.50
2022-11-27T23:30:38.986Z,52.80
2022-11-27T23:33:06.163Z,51.80
2022-11-27T23:35:33.375Z,37.42
2022-11-27T23:38:00.615Z,64.05
2022-11-27T23:40:27.799Z,44.40
2022-11-27T23:42:55.023Z,42.42
2022-11-27T23:45:22.206Z,39.10
2022-11-27T23:47:50.457Z,59.08
2022-11-27T23:50:17.821Z,57.67
2022-11-27T23:52:45.092Z,72.20
2022-11-27T23:55:12.488Z,44.38
2022-11-27T23:57:39.695Z,48.30
